Time;durP1;ratioP1;P1;durP2;ratioP2;P2;SDS_P1;SDS_P2;PMS_P1;PMS_P2;Temp;Humidity;BMP_temperature;BMP_pressure;BME280_temperature;BME280_humidity;BME280_pressure;Samples;Min_cycle;Max_cycle;Signal;HPM_P1;HPM_P2
2023/09/24 00:00:20;;;;;;;;;;;;;;;18.77;60.78;100409.88;10248449;28;812;-71
2023/09/24 00:05:16;;;;;;;;;;;;;;;18.75;60.64;100409.91;10248243;28;834;-71
2023/09/24 00:10:12;;;;;;;;;;;;;;;18.74;60.74;100407.31;10247358;28;1894;-71
2023/09/24 00:15:08;;;;;;;;;;;;;;;18.75;60.86;100403.78;10247783;28;943;-71
2023/09/24 00:20:04;;;;;;;;;;;;;;;18.73;60.83;100408.22;10247624;28;850;-72
2023/09/24 00:25:00;;;;;;;;;;;;;;;18.73;60.86;100409.09;10247382;28;810;-71
2023/09/24 00:29:56;;;;;;;;;;;;;;;18.72;60.75;100412.63;10247778;28;1945;-72
2023/09/24 00:34:51;;;;;;;;;;;;;;;18.72;60.92;100417.91;10247063;28;959;-71
2023/09/24 00:39:47;;;;;;;;;;;;;;;18.71;60.83;100413.56;10245955;28;1471;-71
2023/09/24 00:44:43;;;;;;;;;;;;;;;18.72;60.96;100422.34;10246577;28;891;-71
2023/09/24 00:49:41;;;;;;;;;;;;;;;18.71;60.89;100433.84;10245832;28;1975;-71
2023/09/24 00:54:37;;;;;;;;;;;;;;;18.70;60.75;100445.31;10246129;28;986;-71
2023/09/24 00:59:33;;;;;;;;;;;;;;;18.70;60.83;100443.53;10246065;28;1040;-71
2023/09/24 01:04:29;;;;;;;;;;;;;;;18.70;61.09;100442.66;10245950;28;801;-71
2023/09/24 01:09:25;;;;;;;;;;;;;;;18.69;60.91;100440.94;10245105;28;889;-72
2023/09/24 01:14:21;;;;;;;;;;;;;;;18.68;60.92;100432.16;10245657;28;1894;-72
2023/09/24 01:19:17;;;;;;;;;;;;;;;18.68;61.01;100432.16;10245983;28;814;-71
2023/09/24 01:24:13;;;;;;;;;;;;;;;18.66;60.99;100436.63;10245882;28;849;-72
2023/09/24 01:29:09;;;;;;;;;;;;;;;18.66;61.02;100438.44;10245014;28;803;-72
2023/09/24 01:34:05;;;;;;;;;;;;;;;18.66;60.93;100449.00;10244740;28;1963;-71
2023/09/24 01:39:01;;;;;;;;;;;;;;;18.65;61.07;100450.75;10245440;28;1101;-71
2023/09/24 01:43:57;;;;;;;;;;;;;;;18.65;61.03;100455.16;10243974;28;952;-71
2023/09/24 01:48:54;;;;;;;;;;;;;;;18.64;61.08;100456.94;10245668;28;946;-71
2023/09/24 01:53:50;;;;;;;;;;;;;;;18.62;61.15;100449.06;10244033;28;1914;-72
2023/09/24 01:58:46;;;;;;;;;;;;;;;18.62;61.08;100457.00;10244178;28;906;-71
2023/09/24 02:03:42;;;;;;;;;;;;;;;18.62;61.05;100469.34;10244101;28;827;-72
2023/09/24 02:08:38;;;;;;;;;;;;;;;18.61;61.22;100465.84;10244597;28;953;-71
2023/09/24 02:13:34;;;;;;;;;;;;;;;18.60;61.06;100466.78;10243831;28;1898;-71
2023/09/24 02:18:32;;;;;;;;;;;;;;;18.60;61.12;100469.41;10244400;28;876;-72
2023/09/24 02:23:28;;;;;;;;;;;;;;;18.59;61.20;100470.31;10244345;28;775;-72
2023/09/24 02:28:24;;;;;;;;;;;;;;;18.58;61.13;100468.59;10242988;28;1186;-71
2023/09/24 02:33:20;;;;;;;;;;;;;;;18.58;61.25;100473.88;10244115;28;1897;-71
2023/09/24 02:38:15;;;;;;;;;;;;;;;18.58;61.25;100475.66;10243444;28;1137;-71
2023/09/24 02:43:12;;;;;;;;;;;;;;;18.57;61.19;100484.47;10244264;28;971;-72
2023/09/24 02:48:09;;;;;;;;;;;;;;;18.56;61.18;100474.84;10243855;28;878;-71
2023/09/24 02:53:05;;;;;;;;;;;;;;;18.54;61.21;100482.81;10243658;28;1914;-71
2023/09/24 02:58:03;;;;;;;;;;;;;;;18.56;61.08;100482.75;10243072;28;918;-71
2023/09/24 03:03:00;;;;;;;;;;;;;;;18.53;61.19;100481.09;10246002;28;871;-71
2023/09/24 03:07:56;;;;;;;;;;;;;;;18.55;61.17;100492.47;10250384;28;1152;-72
2023/09/24 03:12:51;;;;;;;;;;;;;;;18.52;61.18;100489.94;10250383;28;1902;-71
2023/09/24 03:17:47;;;;;;;;;;;;;;;18.52;61.19;100502.25;10249492;28;838;-72
2023/09/24 03:22:46;;;;;;;;;;;;;;;18.51;61.06;100500.53;10249885;28;806;-71
2023/09/24 03:27:42;;;;;;;;;;;;;;;18.50;61.30;100499.69;10249491;28;962;-71
2023/09/24 03:32:38;;;;;;;;;;;;;;;18.50;61.18;100504.97;10250014;28;1902;-71
2023/09/24 03:37:34;;;;;;;;;;;;;;;18.49;61.29;100495.31;10249320;28;1331;-71
2023/09/24 03:42:30;;;;;;;;;;;;;;;18.49;61.27;100512.91;10249101;28;846;-71
2023/09/24 03:47:27;;;;;;;;;;;;;;;18.48;61.23;100525.25;10249434;28;902;-71
2023/09/24 03:52:23;;;;;;;;;;;;;;;18.48;61.24;100524.41;10248625;28;1918;-72
2023/09/24 03:57:19;;;;;;;;;;;;;;;18.46;61.02;100535.00;10248422;28;875;-72
2023/09/24 04:02:15;;;;;;;;;;;;;;;18.46;61.29;100537.66;10248320;28;845;-72
2023/09/24 04:07:12;;;;;;;;;;;;;;;18.44;61.29;100544.75;10248770;28;859;-71
2023/09/24 04:12:08;;;;;;;;;;;;;;;18.44;61.26;100555.31;10248700;28;1902;-71
2023/09/24 04:17:04;;;;;;;;;;;;;;;18.42;61.22;100554.53;10246856;28;761;-71
2023/09/24 04:22:00;;;;;;;;;;;;;;;18.50;61.11;100570.97;10248341;28;854;-71
2023/09/24 04:26:56;;;;;;;;;;;;;;;18.59;60.91;100564.50;10247365;28;857;-71
2023/09/24 04:31:52;;;;;;;;;;;;;;;18.62;60.71;100572.31;10247120;28;1957;-71
2023/09/24 04:36:50;;;;;;;;;;;;;;;18.64;60.62;100582.84;10247890;28;1312;-71
2023/09/24 04:41:47;;;;;;;;;;;;;;;18.65;60.71;100582.78;10247383;28;879;-71
2023/09/24 04:46:44;;;;;;;;;;;;;;;18.69;60.58;100591.47;10247289;28;877;-72
2023/09/24 04:51:40;;;;;;;;;;;;;;;18.72;60.51;100599.28;10245737;28;1973;-71
2023/09/24 04:56:35;;;;;;;;;;;;;;;18.72;60.55;100602.78;10246298;28;760;-72
2023/09/24 05:01:31;;;;;;;;;;;;;;;18.77;60.36;100600.88;10246181;28;950;-71
2023/09/24 05:06:27;;;;;;;;;;;;;;;18.80;60.13;100605.19;10246455;28;819;-71
2023/09/24 05:11:23;;;;;;;;;;;;;;;18.80;60.32;100606.06;10246156;28;1902;-71
2023/09/24 05:16:21;;;;;;;;;;;;;;;18.86;60.21;100618.19;10246138;28;786;-71
2023/09/24 05:21:17;;;;;;;;;;;;;;;18.88;60.19;100620.78;10245326;28;826;-71
2023/09/24 05:26:13;;;;;;;;;;;;;;;18.90;59.97;100626.91;10244929;28;1566;-71
2023/09/24 05:31:09;;;;;;;;;;;;;;;18.91;60.21;100634.75;10245527;28;1898;-72
2023/09/24 05:36:05;;;;;;;;;;;;;;;18.94;60.01;100636.44;10244687;28;964;-71
2023/09/24 05:41:01;;;;;;;;;;;;;;;18.97;60.08;100646.91;10243987;28;1250;-71
2023/09/24 05:45:57;;;;;;;;;;;;;;;18.96;60.08;100640.75;10244506;28;1112;-72
2023/09/24 05:50:53;;;;;;;;;;;;;;;18.95;59.96;100641.66;10244388;28;1975;-71
2023/09/24 05:55:49;;;;;;;;;;;;;;;18.97;59.99;100642.50;10244243;28;914;-71
2023/09/24 06:00:45;;;;;;;;;;;;;;;18.98;59.97;100641.56;10244241;28;883;-71
2023/09/24 06:05:41;;;;;;;;;;;;;;;18.98;60.01;100656.56;10244192;28;795;-71
2023/09/24 06:10:37;;;;;;;;;;;;;;;18.99;59.83;100652.97;10244395;28;1898;-71
2023/09/24 06:15:33;;;;;;;;;;;;;;;19.02;59.73;100659.06;10244517;28;748;-71
2023/09/24 06:20:29;;;;;;;;;;;;;;;19.03;59.92;100667.84;10244364;28;780;-72
2023/09/24 06:25:25;;;;;;;;;;;;;;;19.08;59.74;100675.63;10244244;28;897;-72
2023/09/24 06:30:21;;;;;;;;;;;;;;;19.08;59.90;100681.75;10244583;28;1898;-71
2023/09/24 06:35:17;;;;;;;;;;;;;;;19.11;59.81;100688.72;10244393;28;799;-72
2023/09/24 06:40:13;;;;;;;;;;;;;;;19.13;59.70;100689.53;10250624;28;1240;-71
2023/09/24 06:45:09;;;;;;;;;;;;;;;19.12;59.78;100695.72;10251893;28;888;-71
2023/09/24 06:50:05;;;;;;;;;;;;;;;19.14;59.59;100701.81;10251044;28;1961;-68
2023/09/24 06:55:01;;;;;;;;;;;;;;;19.11;59.76;100705.44;10250787;28;969;-72
2023/09/24 06:59:57;;;;;;;;;;;;;;;19.14;59.78;100705.31;10250768;28;1246;-72
2023/09/24 07:04:53;;;;;;;;;;;;;;;19.13;59.78;100714.19;10250550;28;768;-75
2023/09/24 07:09:49;;;;;;;;;;;;;;;19.10;59.60;100718.69;10250211;28;1947;-72
2023/09/24 07:14:45;;;;;;;;;;;;;;;19.15;59.54;100720.28;10249627;28;1063;-72
2023/09/24 07:19:41;;;;;;;;;;;;;;;19.21;59.56;100709.50;10240817;28;1023;-71
2023/09/24 07:24:37;;;;;;;;;;;;;;;19.21;59.59;100722.72;10208241;28;1135;-71
2023/09/24 07:29:33;;;;;;;;;;;;;;;19.18;59.82;100724.59;10209180;28;801;-73
2023/09/24 07:34:29;;;;;;;;;;;;;;;19.20;60.06;100731.56;10208436;28;1898;-71
2023/09/24 07:39:25;;;;;;;;;;;;;;;19.23;59.82;100726.16;10208768;28;1365;-80
2023/09/24 07:44:21;;;;;;;;;;;;;;;19.26;59.81;100736.63;10207653;28;899;-71
2023/09/24 07:49:17;;;;;;;;;;;;;;;19.25;59.91;100739.31;10208518;28;783;-72
2023/09/24 07:54:13;;;;;;;;;;;;;;;19.23;60.11;100743.78;10207179;28;1914;-71
2023/09/24 07:59:09;;;;;;;;;;;;;;;19.25;60.03;100737.53;10208034;28;1508;-72
2023/09/24 08:04:05;;;;;;;;;;;;;;;19.27;59.96;100742.78;10207425;28;832;-72
2023/09/24 08:09:02;;;;;;;;;;;;;;;19.28;59.99;100747.13;10207432;28;806;-71
2023/09/24 08:13:58;;;;;;;;;;;;;;;19.29;60.09;100742.75;10206980;28;1910;-71
2023/09/24 08:18:54;;;;;;;;;;;;;;;19.28;59.94;100749.78;10206499;28;961;-72
2023/09/24 08:23:49;;;;;;;;;;;;;;;19.31;59.90;100747.06;10206859;28;1125;-72
2023/09/24 08:28:45;;;;;;;;;;;;;;;19.33;59.72;100741.69;10207590;28;810;-71
2023/09/24 08:33:41;;;;;;;;;;;;;;;19.32;59.78;100748.78;10206313;28;1911;-72
2023/09/24 08:38:37;;;;;;;;;;;;;;;19.30;59.79;100745.31;10206193;28;1330;-72
2023/09/24 08:43:33;;;;;;;;;;;;;;;19.32;59.99;100753.22;10206565;28;878;-71
2023/09/24 08:48:29;;;;;;;;;;;;;;;19.33;59.82;100749.63;10206194;28;892;-72
2023/09/24 08:53:28;;;;;;;;;;;;;;;19.34;59.49;100740.81;10205289;28;1923;-72
2023/09/24 08:58:25;;;;;;;;;;;;;;;19.35;59.90;100748.66;10205697;28;944;-72
2023/09/24 09:03:21;;;;;;;;;;;;;;;19.33;59.81;100731.97;10204521;28;962;-72
2023/09/24 09:08:17;;;;;;;;;;;;;;;19.34;59.62;100739.03;10205138;28;763;-72
2023/09/24 09:13:18;;;;;;;;;;;;;;;19.33;59.96;100734.63;10204958;28;1941;-72
2023/09/24 09:18:14;;;;;;;;;;;;;;;19.32;59.99;100735.56;10205377;28;1003;-71
2023/09/24 09:23:13;;;;;;;;;;;;;;;19.32;60.07;100735.56;10204632;28;1182;-76
2023/09/24 09:28:09;;;;;;;;;;;;;;;19.29;60.28;100732.16;10203501;28;842;-72
2023/09/24 09:33:08;;;;;;;;;;;;;;;19.29;60.35;100729.53;10204716;28;1894;-71
2023/09/24 09:38:04;;;;;;;;;;;;;;;19.25;60.33;100723.47;10203904;28;1192;-71
2023/09/24 09:43:00;;;;;;;;;;;;;;;19.24;60.47;100724.38;10204553;28;928;-72
2023/09/24 09:47:56;;;;;;;;;;;;;;;19.21;60.46;100712.13;10203378;28;944;-72
2023/09/24 09:52:51;;;;;;;;;;;;;;;19.18;60.43;100712.25;10203574;28;1930;-72
2023/09/24 09:57:47;;;;;;;;;;;;;;;19.17;60.11;100701.72;10204289;28;885;-72
2023/09/24 10:02:43;;;;;;;;;;;;;;;19.16;60.16;100702.63;10203381;28;827;-71
2023/09/24 10:07:40;;;;;;;;;;;;;;;19.16;60.25;100700.00;10203541;28;767;-72
2023/09/24 10:12:35;;;;;;;;;;;;;;;19.12;60.42;100701.84;10202622;28;1906;-72
2023/09/24 10:17:32;;;;;;;;;;;;;;;19.11;60.23;100697.50;10203381;28;957;-72
2023/09/24 10:22:27;;;;;;;;;;;;;;;19.10;60.20;100698.44;10203107;28;861;-72
2023/09/24 10:27:23;;;;;;;;;;;;;;;19.09;60.40;100695.81;10202352;28;1262;-72
2023/09/24 10:32:21;;;;;;;;;;;;;;;19.09;60.54;100698.47;10202843;28;1957;-72
2023/09/24 10:37:17;;;;;;;;;;;;;;;19.08;60.59;100689.69;10202874;28;1086;-72
2023/09/24 10:42:15;;;;;;;;;;;;;;;19.07;60.57;100685.28;10202754;28;782;-73
2023/09/24 10:47:11;;;;;;;;;;;;;;;19.07;60.45;100676.50;10213548;28;1851;-72
2023/09/24 10:52:07;;;;;;;;;;;;;;;19.04;60.30;100680.97;10224694;28;1910;-72
2023/09/24 10:57:04;;;;;;;;;;;;;;;19.04;60.41;100678.34;10242048;28;1116;-72
2023/09/24 11:02:00;;;;;;;;;;;;;;;19.03;60.37;100676.63;10242610;28;993;-72
2023/09/24 11:06:56;;;;;;;;;;;;;;;19.06;60.46;100675.66;10242522;28;869;-72
2023/09/24 11:11:52;;;;;;;;;;;;;;;19.05;60.58;100672.16;10241685;28;1906;-72
2023/09/24 11:16:47;;;;;;;;;;;;;;;19.05;60.01;100672.16;10242842;28;803;-72
2023/09/24 11:21:43;;;;;;;;;;;;;;;19.03;60.15;100663.41;10242444;28;922;-72
2023/09/24 11:26:39;;;;;;;;;;;;;;;19.22;59.92;100658.34;10226373;28;994;-72
2023/09/24 11:31:35;;;;;;;;;;;;;;;19.28;59.12;100657.25;10208880;28;1969;-72
2023/09/24 11:36:31;;;;;;;;;;;;;;;19.20;58.70;100651.38;10208689;28;1186;-72
2023/09/24 11:41:27;;;;;;;;;;;;;;;19.08;59.35;100651.84;10209127;28;1192;-74
2023/09/24 11:46:27;;;;;;;;;;;;;;;19.10;59.03;100642.94;10244802;28;1128;-72
2023/09/24 11:51:23;;;;;;;;;;;;;;;19.02;59.74;100640.56;10248472;28;1914;-72
2023/09/24 11:56:19;;;;;;;;;;;;;;;19.02;60.11;100626.44;10248287;28;783;-72
2023/09/24 12:01:15;;;;;;;;;;;;;;;19.01;59.82;100617.66;10248379;28;930;-72
2023/09/24 12:06:11;;;;;;;;;;;;;;;19.01;59.78;100615.03;10247309;28;1067;-72
2023/09/24 12:11:07;;;;;;;;;;;;;;;19.00;60.08;100612.47;10247779;28;1952;-72
2023/09/24 12:16:03;;;;;;;;;;;;;;;19.01;60.34;100609.75;10248147;28;940;-72
2023/09/24 12:20:59;;;;;;;;;;;;;;;19.02;60.30;100616.78;10247407;28;990;-72
2023/09/24 12:25:55;;;;;;;;;;;;;;;19.04;60.35;100614.06;10246881;28;1040;-72
2023/09/24 12:30:51;;;;;;;;;;;;;;;19.07;60.14;100607.81;10247190;28;1911;-72
2023/09/24 12:35:46;;;;;;;;;;;;;;;19.12;60.21;100619.09;10245603;28;878;-72
2023/09/24 12:40:42;;;;;;;;;;;;;;;19.16;60.19;100620.72;10246361;28;1460;-72
2023/09/24 12:45:38;;;;;;;;;;;;;;;19.17;60.30;100614.50;10247238;28;873;-72
2023/09/24 12:50:34;;;;;;;;;;;;;;;19.24;59.97;100610.72;10246353;28;1954;-72
2023/09/24 12:55:30;;;;;;;;;;;;;;;19.33;59.75;100606.88;10246103;28;946;-72
2023/09/24 13:00:26;;;;;;;;;;;;;;;19.40;59.76;100613.69;10246644;28;921;-72
2023/09/24 13:05:23;;;;;;;;;;;;;;;19.48;59.34;100609.84;10245874;28;764;-72
2023/09/24 13:10:19;;;;;;;;;;;;;;;19.58;59.18;100606.88;10246130;28;1902;-72
2023/09/24 13:15:15;;;;;;;;;;;;;;;19.69;58.89;100610.00;10245436;28;869;-72
2023/09/24 13:20:11;;;;;;;;;;;;;;;19.79;58.87;100605.22;10244788;28;1074;-74
2023/09/24 13:25:07;;;;;;;;;;;;;;;19.91;58.39;100608.28;10246094;28;833;-72
2023/09/24 13:30:03;;;;;;;;;;;;;;;20.02;58.32;100599.06;10245197;28;1906;-71
2023/09/24 13:35:03;;;;;;;;;;;;;;;20.11;58.18;100588.09;10245330;28;766;-72
2023/09/24 13:39:59;;;;;;;;;;;;;;;20.22;58.03;100585.03;10245873;28;1333;-72
2023/09/24 13:44:55;;;;;;;;;;;;;;;20.14;58.10;100582.69;10244152;28;818;-72
2023/09/24 13:49:51;;;;;;;;;;;;;;;19.97;58.87;100585.16;10222887;28;1018;-72
2023/09/24 13:54:47;;;;;;;;;;;;;;;19.91;58.85;100576.53;10204119;28;1959;-72
2023/09/24 13:59:42;;;;;;;;;;;;;;;19.89;58.78;100573.06;10203902;28;901;-73
2023/09/24 14:04:38;;;;;;;;;;;;;;;19.91;58.94;100575.63;10204195;28;823;-72
2023/09/24 14:14:49;;;;;;;;;;;;;;;19.91;58.94;100584.47;10203176;28;1894;-72
2023/09/24 14:19:45;;;;;;;;;;;;;;;19.95;59.05;100573.75;10202788;28;902;-72
2023/09/24 14:24:41;;;;;;;;;;;;;;;19.97;58.96;100572.78;10202615;28;1036;-72
2023/09/24 14:29:37;;;;;;;;;;;;;;;20.00;59.01;100574.44;10203521;28;787;-72
2023/09/24 14:34:32;;;;;;;;;;;;;;;20.02;58.80;100567.31;10203239;28;1960;-72
2023/09/24 14:39:29;;;;;;;;;;;;;;;20.03;58.97;100569.00;10203007;28;1396;-72
2023/09/24 14:44:27;;;;;;;;;;;;;;;20.04;58.98;100560.13;10204293;28;1832;-72
2023/09/24 14:49:23;;;;;;;;;;;;;;;20.03;58.95;100569.88;10203410;28;1771;-72
2023/09/24 14:54:19;;;;;;;;;;;;;;;20.05;59.02;100557.44;10202738;28;1915;-72
2023/09/24 14:59:15;;;;;;;;;;;;;;;20.06;59.15;100548.56;10188966;28;776;-72
2023/09/24 15:04:11;;;;;;;;;;;;;;;20.05;59.18;100544.22;10210919;28;1124;-72
2023/09/24 15:09:06;;;;;;;;;;;;;;;20.06;59.31;100553.88;10210663;28;958;-72
2023/09/24 15:14:02;;;;;;;;;;;;;;;20.07;59.00;100547.66;10210077;28;1902;-72
2023/09/24 15:18:58;;;;;;;;;;;;;;;20.07;59.16;100554.75;10209340;28;969;-71
2023/09/24 15:23:54;;;;;;;;;;;;;;;20.08;59.34;100553.81;10209826;28;794;-71
2023/09/24 15:28:50;;;;;;;;;;;;;;;20.10;59.08;100538.75;10209641;28;846;-72
2023/09/24 15:33:46;;;;;;;;;;;;;;;20.10;59.17;100536.09;10209390;28;1906;-72
2023/09/24 15:38:42;;;;;;;;;;;;;;;20.10;59.04;100529.00;10208582;28;1131;-72
2023/09/24 15:43:38;;;;;;;;;;;;;;;20.06;59.34;100515.97;10209115;28;945;-73
2023/09/24 15:48:34;;;;;;;;;;;;;;;20.04;59.33;100515.16;10208860;28;851;-71
2023/09/24 15:53:30;;;;;;;;;;;;;;;20.07;59.44;100517.69;10208629;28;1914;-72
2023/09/24 15:58:26;;;;;;;;;;;;;;;20.07;59.32;100513.25;10209021;28;868;-71
2023/09/24 16:03:21;;;;;;;;;;;;;;;20.07;59.19;100507.13;10208858;28;868;-72
2023/09/24 16:08:17;;;;;;;;;;;;;;;20.08;59.45;100506.19;10207681;28;879;-72
2023/09/24 16:13:13;;;;;;;;;;;;;;;20.05;59.54;100506.31;10207347;28;1902;-72
2023/09/24 16:18:09;;;;;;;;;;;;;;;20.03;59.72;100502.84;10207746;28;854;-72
2023/09/24 16:23:05;;;;;;;;;;;;;;;20.03;59.55;100506.34;10207545;28;814;-72
2023/09/24 16:28:01;;;;;;;;;;;;;;;20.04;59.60;100518.69;10207915;28;858;-72
2023/09/24 16:32:57;;;;;;;;;;;;;;;20.05;59.52;100520.41;10207087;28;1974;-72
2023/09/24 16:37:53;;;;;;;;;;;;;;;20.05;59.69;100527.47;10207167;28;1249;-72
2023/09/24 16:42:49;;;;;;;;;;;;;;;20.03;59.65;100537.25;10206194;28;939;-72
2023/09/24 16:47:46;;;;;;;;;;;;;;;20.04;59.57;100541.63;10206528;28;943;-72
2023/09/24 16:52:41;;;;;;;;;;;;;;;20.04;59.77;100545.16;10206198;28;1910;-72
2023/09/24 16:57:38;;;;;;;;;;;;;;;20.02;59.63;100540.84;10206783;28;872;-72
2023/09/24 17:02:34;;;;;;;;;;;;;;;20.02;59.57;100536.41;10206542;28;962;-73
2023/09/24 17:07:30;;;;;;;;;;;;;;;20.02;59.69;100538.19;10206573;28;905;-72
2023/09/24 17:12:26;;;;;;;;;;;;;;;20.04;59.76;100539.84;10206346;28;1902;-72
2023/09/24 17:17:22;;;;;;;;;;;;;;;20.06;59.39;100548.56;10205512;28;775;-72
2023/09/24 17:22:18;;;;;;;;;;;;;;;20.06;59.58;100547.72;10205142;28;936;-72
2023/09/24 17:27:14;;;;;;;;;;;;;;;20.07;59.62;100539.72;10205649;28;770;-72
2023/09/24 17:32:10;;;;;;;;;;;;;;;20.09;59.43;100537.00;10205001;28;1967;-69
2023/09/24 17:37:05;;;;;;;;;;;;;;;20.07;59.47;100544.16;10205183;28;1259;-68
2023/09/24 17:42:01;;;;;;;;;;;;;;;20.03;59.75;100545.19;10205219;28;878;-69
2023/09/24 17:46:57;;;;;;;;;;;;;;;20.01;59.52;100539.94;10203852;28;1194;-72
2023/09/24 17:51:54;;;;;;;;;;;;;;;20.05;59.49;100548.66;10204298;28;1992;-72
2023/09/24 17:56:50;;;;;;;;;;;;;;;20.07;59.40;100547.66;10204244;28;878;-72
2023/09/24 18:01:46;;;;;;;;;;;;;;;20.10;59.18;100558.13;10203702;28;1059;-72
2023/09/24 18:06:42;;;;;;;;;;;;;;;20.10;59.30;100559.91;10204039;28;865;-72
2023/09/24 18:11:38;;;;;;;;;;;;;;;20.09;59.18;100556.38;10204030;28;1957;-72
2023/09/24 18:16:34;;;;;;;;;;;;;;;20.11;59.35;100566.91;10204445;28;879;-72
2023/09/24 18:21:29;;;;;;;;;;;;;;;20.11;59.23;100566.91;10203756;28;993;-68
2023/09/24 18:26:25;;;;;;;;;;;;;;;20.14;59.15;100566.78;10203656;28;984;-73
2023/09/24 18:31:21;;;;;;;;;;;;;;;20.13;59.19;100570.38;10203413;28;1898;-72
2023/09/24 18:36:17;;;;;;;;;;;;;;;20.14;59.27;100572.09;10210673;28;780;-72
2023/09/24 18:41:14;;;;;;;;;;;;;;;20.12;59.35;100573.94;10212539;28;1166;-73
2023/09/24 18:46:10;;;;;;;;;;;;;;;20.13;59.28;100573.88;10211942;28;957;-72
2023/09/24 18:51:06;;;;;;;;;;;;;;;20.16;59.19;100591.44;10211991;28;1926;-73
2023/09/24 18:56:02;;;;;;;;;;;;;;;20.17;59.37;100592.28;10210260;28;906;-73
2023/09/24 19:00:58;;;;;;;;;;;;;;;20.17;59.25;100585.19;10211572;28;844;-73
2023/09/24 19:05:57;;;;;;;;;;;;;;;20.16;59.44;100591.44;10211135;28;852;-72
2023/09/24 19:10:53;;;;;;;;;;;;;;;20.16;59.41;100585.28;10210240;28;1894;-72
2023/09/24 19:15:49;;;;;;;;;;;;;;;20.17;59.34;100598.44;10210824;28;890;-72
2023/09/24 19:20:45;;;;;;;;;;;;;;;20.19;59.17;100591.28;10210036;28;790;-73
2023/09/24 19:25:43;;;;;;;;;;;;;;;20.19;59.20;100586.00;10209805;28;771;-72
2023/09/24 19:30:39;;;;;;;;;;;;;;;20.20;59.24;100586.84;10209494;28;1902;-72
2023/09/24 19:35:35;;;;;;;;;;;;;;;20.19;59.37;100596.59;10209772;28;897;-72
2023/09/24 19:40:31;;;;;;;;;;;;;;;20.16;59.41;100582.63;10209415;28;1130;-72
2023/09/24 19:45:27;;;;;;;;;;;;;;;20.15;59.45;100571.19;10208701;28;795;-73
2023/09/24 19:50:23;;;;;;;;;;;;;;;20.16;59.59;100564.09;10209092;28;1971;-77
2023/09/24 19:55:19;;;;;;;;;;;;;;;20.13;59.43;100555.34;10208602;28;968;-72
2023/09/24 20:00:14;;;;;;;;;;;;;;;20.11;59.42;100551.03;10208573;28;976;-72
2023/09/24 20:05:10;;;;;;;;;;;;;;;20.10;59.59;100549.34;10207623;28;927;-72
2023/09/24 20:10:06;;;;;;;;;;;;;;;20.08;59.55;100548.53;10208127;28;778;-72
2023/09/24 20:15:02;;;;;;;;;;;;;;;20.06;59.51;100553.88;10207673;28;1955;-72
2023/09/24 20:19:58;;;;;;;;;;;;;;;20.06;59.61;100537.13;10208291;28;780;-73
2023/09/24 20:24:54;;;;;;;;;;;;;;;20.04;59.71;100536.31;10207435;28;770;-73
2023/09/24 20:29:50;;;;;;;;;;;;;;;20.03;59.67;100539.91;10208521;28;897;-72
2023/09/24 20:34:46;;;;;;;;;;;;;;;20.02;59.62;100538.19;10207871;28;1945;-72
2023/09/24 20:39:41;;;;;;;;;;;;;;;20.00;59.63;100542.69;10206754;28;1519;-73
2023/09/24 20:44:37;;;;;;;;;;;;;;;19.99;59.61;100535.66;10206710;28;839;-73
2023/09/24 20:49:33;;;;;;;;;;;;;;;19.98;59.88;100541.88;10207184;28;807;-72
2023/09/24 20:54:29;;;;;;;;;;;;;;;19.97;59.72;100532.22;10206076;28;1914;-73
2023/09/24 20:59:25;;;;;;;;;;;;;;;19.95;59.77;100519.03;10205215;28;916;-72
2023/09/24 21:04:21;;;;;;;;;;;;;;;19.92;59.84;100520.03;10206099;28;782;-72
2023/09/24 21:09:17;;;;;;;;;;;;;;;19.92;59.84;100522.66;10206652;28;949;-72
2023/09/24 21:14:13;;;;;;;;;;;;;;;19.92;59.70;100514.72;10205417;28;1895;-72
2023/09/24 21:19:09;;;;;;;;;;;;;;;19.90;59.84;100506.00;10205045;28;822;-72
2023/09/24 21:24:05;;;;;;;;;;;;;;;19.89;59.79;100498.97;10205385;28;741;-72
2023/09/24 21:29:01;;;;;;;;;;;;;;;19.88;59.68;100502.53;10205174;28;814;-73
2023/09/24 21:33:56;;;;;;;;;;;;;;;19.88;59.59;100497.25;10205636;28;1914;-72
2023/09/24 21:38:52;;;;;;;;;;;;;;;19.86;59.71;100491.19;10204659;28;1221;-72
2023/09/24 21:43:48;;;;;;;;;;;;;;;19.85;59.58;100486.78;10204656;28;891;-72
2023/09/24 21:48:48;;;;;;;;;;;;;;;19.84;59.63;100478.94;10204558;28;899;-72
2023/09/24 21:53:44;;;;;;;;;;;;;;;19.85;59.57;100476.22;10204386;28;1907;-73
2023/09/24 21:58:40;;;;;;;;;;;;;;;19.88;59.53;100476.06;10203698;28;933;-72
2023/09/24 22:03:36;;;;;;;;;;;;;;;19.87;59.76;100474.38;10204218;28;803;-72
2023/09/24 22:08:32;;;;;;;;;;;;;;;19.85;59.57;100472.72;10203942;28;947;-72
2023/09/24 22:13:28;;;;;;;;;;;;;;;19.84;59.77;100466.56;10203772;28;1947;-72
2023/09/24 22:18:23;;;;;;;;;;;;;;;19.81;59.40;100461.41;10203784;28;899;-73
2023/09/24 22:23:19;;;;;;;;;;;;;;;19.81;59.79;100466.69;10204250;28;843;-72
2023/09/24 22:28:15;;;;;;;;;;;;;;;19.80;59.73;100458.81;10203702;28;830;-72
2023/09/24 22:33:11;;;;;;;;;;;;;;;19.78;59.66;100456.25;10204077;28;1898;-72
2023/09/24 22:38:07;;;;;;;;;;;;;;;19.75;59.78;100451.03;10203791;28;1272;-72
2023/09/24 22:43:03;;;;;;;;;;;;;;;19.75;59.89;100451.03;10203365;28;788;-73
2023/09/24 22:47:59;;;;;;;;;;;;;;;19.74;59.78;100459.06;10203316;28;921;-72
2023/09/24 22:52:55;;;;;;;;;;;;;;;19.71;59.88;100452.09;10202534;28;1914;-73
2023/09/24 22:57:51;;;;;;;;;;;;;;;19.69;59.88;100446.00;10203142;28;929;-72
2023/09/24 23:02:47;;;;;;;;;;;;;;;19.67;59.72;100445.19;10204302;28;917;-73
2023/09/24 23:07:45;;;;;;;;;;;;;;;19.65;59.98;100434.66;10203613;28;802;-72
2023/09/24 23:12:41;;;;;;;;;;;;;;;19.65;60.02;100428.53;10202737;28;1890;-72
2023/09/24 23:17:36;;;;;;;;;;;;;;;19.65;59.93;100431.16;10202768;28;787;-72
2023/09/24 23:22:33;;;;;;;;;;;;;;;19.62;60.03;100429.50;10210196;28;873;-73
2023/09/24 23:27:29;;;;;;;;;;;;;;;19.61;60.16;100424.28;10209727;28;823;-72
2023/09/24 23:32:28;;;;;;;;;;;;;;;19.59;59.98;100413.75;10210058;28;1886;-72
2023/09/24 23:37:24;;;;;;;;;;;;;;;19.59;59.75;100407.59;10209829;28;1082;-72
2023/09/24 23:42:20;;;;;;;;;;;;;;;19.57;60.04;100406.78;10209658;28;956;-73
2023/09/24 23:47:16;;;;;;;;;;;;;;;19.55;59.92;100395.44;10209567;28;885;-72
2023/09/24 23:52:12;;;;;;;;;;;;;;;19.55;59.85;100392.78;10208761;28;1902;-72
2023/09/24 23:57:08;;;;;;;;;;;;;;;19.53;59.89;100382.25;10209265;28;858;-72
